Time;durP1;ratioP1;P1;durP2;ratioP2;P2;SDS_P1;SDS_P2;PMS_P1;PMS_P2;Temp;Humidity;BMP_temperature;BMP_pressure;BME280_temperature;BME280_humidity;BME280_pressure;Samples;Min_cycle;Max_cycle;Signal;HPM_P1;HPM_P2
2023/08/15 00:01:43;;;;;;;11.90;7.07;;;;;;;21.86;100.00;100604.44;5011471;28;20085;-82
2023/08/15 00:04:09;;;;;;;9.70;6.13;;;;;;;21.83;100.00;100601.44;5011644;28;20057;-82
2023/08/15 00:06:36;;;;;;;9.23;7.07;;;;;;;21.82;100.00;100605.13;5032704;28;20180;-82
2023/08/15 00:09:03;;;;;;;8.25;6.60;;;;;;;21.85;100.00;100599.34;5024470;28;20109;-81
2023/08/15 00:11:29;;;;;;;10.45;7.00;;;;;;;21.80;100.00;100596.56;5026537;28;20045;-81
2023/08/15 00:13:59;;;;;;;7.38;6.50;;;;;;;21.72;100.00;100588.94;5044599;28;20092;-81
2023/08/15 00:16:25;;;;;;;11.35;6.40;;;;;;;21.77;100.00;100597.03;5037118;28;20085;-82
2023/08/15 00:18:52;;;;;;;8.85;6.53;;;;;;;21.74;100.00;100589.53;5032561;28;20057;-82
2023/08/15 00:21:19;;;;;;;10.80;6.60;;;;;;;21.67;100.00;100596.81;5030735;28;20057;-82
2023/08/15 00:23:45;;;;;;;10.07;6.47;;;;;;;21.70;100.00;100594.50;5030674;28;20076;-81
2023/08/15 00:26:12;;;;;;;6.75;6.00;;;;;;;21.61;100.00;100593.22;5029602;28;20152;-82
2023/08/15 00:28:42;;;;;;;7.32;6.50;;;;;;;21.52;100.00;100582.06;5027832;28;20081;-82
2023/08/15 00:31:10;;;;;;;10.43;6.97;;;;;;;21.47;100.00;100592.59;5031915;28;20045;-82
2023/08/15 00:33:36;;;;;;;11.88;7.65;;;;;;;21.41;100.00;100582.84;5031933;28;20042;-81
2023/08/15 00:36:04;;;;;;;7.93;6.53;;;;;;;21.52;100.00;100595.38;5038366;28;20069;-82
2023/08/15 00:38:30;;;;;;;7.97;6.47;;;;;;;21.45;100.00;100604.50;5048819;28;20085;-82
2023/08/15 00:40:59;;;;;;;9.50;6.93;;;;;;;21.46;100.00;100606.94;5033434;28;20088;-82
2023/08/15 00:43:25;;;;;;;8.45;6.80;;;;;;;21.57;100.00;100601.88;5035089;28;20056;-82
2023/08/15 00:45:52;;;;;;;8.73;7.40;;;;;;;21.61;100.00;100597.72;5046071;22;20038;-83
2023/08/15 00:48:21;;;;;;;8.23;7.38;;;;;;;21.68;100.00;100593.91;5035953;28;20117;-83
2023/08/15 00:50:50;;;;;;;9.88;7.07;;;;;;;21.58;100.00;100591.00;5037833;28;20053;-81
2023/08/15 00:53:17;;;;;;;9.13;7.65;;;;;;;21.49;100.00;100592.38;5037870;28;20470;-81
2023/08/15 00:55:45;;;;;;;9.32;8.38;;;;;;;21.42;100.00;100581.00;5037841;28;20072;-80
2023/08/15 00:58:11;;;;;;;12.77;9.43;;;;;;;21.34;100.00;100573.34;5032107;28;20076;-82
2023/08/15 01:00:38;;;;;;;10.70;9.55;;;;;;;21.24;100.00;100570.44;5037305;28;20459;-83
2023/08/15 01:03:05;;;;;;;12.07;10.15;;;;;;;21.23;100.00;100564.31;5028363;28;20124;-84
2023/08/15 01:05:34;;;;;;;11.43;10.27;;;;;;;21.20;100.00;100564.75;5033258;28;20079;-83
2023/08/15 01:08:03;;;;;;;11.10;9.48;;;;;;;21.15;100.00;100551.31;5041693;28;20076;-80
2023/08/15 01:10:29;;;;;;;11.35;9.77;;;;;;;21.10;100.00;100537.88;5038132;28;20115;-80
2023/08/15 01:13:03;;;;;;;11.80;10.45;;;;;;;21.15;100.00;100556.63;5036089;28;20053;-80
2023/08/15 01:15:35;;;;;;;10.98;9.98;;;;;;;21.08;100.00;100547.91;5032937;28;20045;-80
2023/08/15 01:18:07;;;;;;;11.27;10.05;;;;;;;21.09;100.00;100552.22;5037607;28;20079;-79
2023/08/15 01:20:37;;;;;;;13.02;10.25;;;;;;;21.12;100.00;100557.06;5031398;28;20046;-80
2023/08/15 01:23:06;;;;;;;14.43;9.43;;;;;;;21.11;100.00;100555.44;5029664;28;20083;-79
2023/08/15 01:25:40;;;;;;;11.15;9.85;;;;;;;21.09;100.00;100557.53;5035885;28;20065;-83
2023/08/15 01:28:08;;;;;;;14.35;10.20;;;;;;;21.10;100.00;100564.47;5040793;28;20060;-82
2023/08/15 01:30:34;;;;;;;10.80;9.55;;;;;;;21.08;100.00;100571.88;5045716;28;20064;-83
2023/08/15 01:33:07;;;;;;;10.45;9.38;;;;;;;21.07;100.00;100572.91;5049814;28;20076;-85
2023/08/15 01:35:38;;;;;;;10.48;9.55;;;;;;;21.09;100.00;100584.13;5050325;28;20038;-86
2023/08/15 01:38:11;;;;;;;11.57;9.43;;;;;;;21.08;100.00;100585.16;5053504;28;20041;-83
2023/08/15 01:40:41;;;;;;;11.38;9.95;;;;;;;21.13;100.00;100596.75;5047751;28;20049;-87
2023/08/15 01:43:11;;;;;;;11.65;9.25;;;;;;;21.23;100.00;100590.94;5053841;28;20053;-84
2023/08/15 01:45:38;;;;;;;11.65;10.52;;;;;;;21.32;100.00;100599.38;5037013;28;20060;-85
2023/08/15 01:48:05;;;;;;;13.07;10.50;;;;;;;21.33;100.00;100591.16;5022010;28;20076;-83
2023/08/15 01:50:31;;;;;;;12.10;11.00;;;;;;;21.33;100.00;100595.69;5035484;28;20140;-83
2023/08/15 01:52:58;;;;;;;11.63;10.10;;;;;;;21.29;100.00;100597.97;5038345;28;20128;-84
2023/08/15 01:55:24;;;;;;;12.98;10.88;;;;;;;21.30;100.00;100594.28;5039376;28;20092;-85
2023/08/15 01:57:52;;;;;;;13.35;10.27;;;;;;;21.33;100.00;100601.00;5039395;28;20136;-83
2023/08/15 02:00:19;;;;;;;12.05;10.63;;;;;;;21.34;100.00;100618.59;5038114;28;20132;-81
2023/08/15 02:02:46;;;;;;;12.48;9.98;;;;;;;21.39;100.00;100629.38;5031823;28;20112;-81
2023/08/15 02:05:13;;;;;;;11.60;10.07;;;;;;;21.42;100.00;100626.25;5039348;28;20132;-82
2023/08/15 02:07:39;;;;;;;11.48;9.80;;;;;;;21.46;100.00;100624.78;5037865;28;20415;-82
2023/08/15 02:10:07;;;;;;;11.23;9.75;;;;;;;21.49;100.00;100626.97;5028631;28;20117;-82
2023/08/15 02:12:33;;;;;;;11.30;10.02;;;;;;;21.49;100.00;100611.00;5030025;28;20133;-83
2023/08/15 02:15:02;;;;;;;12.00;9.65;;;;;;;21.49;100.00;100609.16;5036448;28;20128;-82
2023/08/15 02:17:29;;;;;;;10.52;8.35;;;;;;;21.48;100.00;100604.06;5031016;28;20058;-82
2023/08/15 02:19:56;;;;;;;9.95;9.05;;;;;;;21.50;100.00;100615.28;5036056;28;20053;-83
2023/08/15 02:22:22;;;;;;;10.57;8.68;;;;;;;21.55;100.00;100610.09;5030021;28;20500;-83
2023/08/15 02:24:49;;;;;;;9.68;8.48;;;;;;;21.52;100.00;100610.53;5036348;28;20052;-82
2023/08/15 02:27:15;;;;;;;11.07;8.63;;;;;;;21.58;100.00;100622.94;5036354;28;20076;-84
2023/08/15 02:29:42;;;;;;;13.05;8.75;;;;;;;21.64;100.00;100623.91;5037212;28;20088;-83
2023/08/15 02:32:10;;;;;;;9.35;8.45;;;;;;;21.67;100.00;100631.44;5032712;28;20091;-82
2023/08/15 02:34:37;;;;;;;9.13;8.00;;;;;;;21.68;100.00;100633.06;5035851;28;20136;-80
2023/08/15 02:37:04;;;;;;;10.57;7.97;;;;;;;21.75;100.00;100633.72;5033117;28;20495;-83
2023/08/15 02:39:30;;;;;;;8.18;7.22;;;;;;;21.78;100.00;100650.06;5030595;28;20140;-83
2023/08/15 02:41:57;;;;;;;16.38;7.97;;;;;;;21.77;100.00;100644.97;5029340;28;20084;-84
2023/08/15 02:44:24;;;;;;;12.20;7.63;;;;;;;21.79;100.00;100626.91;5035905;28;20053;-81
2023/08/15 02:46:51;;;;;;;8.85;7.80;;;;;;;21.82;100.00;100623.78;5028175;28;20049;-83
2023/08/15 02:49:19;;;;;;;10.95;8.07;;;;;;;21.77;100.00;100607.69;5025097;28;20128;-79
2023/08/15 02:51:46;;;;;;;14.13;8.18;;;;;;;21.72;100.00;100616.38;5031332;28;20539;-83
2023/08/15 02:54:13;;;;;;;11.25;8.13;;;;;;;21.74;100.00;100629.47;5037744;28;20079;-82
2023/08/15 02:56:40;;;;;;;9.32;7.85;;;;;;;21.70;100.00;100628.31;5032302;28;20049;-83
2023/08/15 02:59:06;;;;;;;9.90;7.95;;;;;;;21.59;100.00;100621.91;5030523;28;20075;-80
2023/08/15 03:01:33;;;;;;;9.85;8.48;;;;;;;21.55;100.00;100647.38;5036943;28;20061;-82
2023/08/15 03:04:00;;;;;;;10.30;7.18;;;;;;;21.60;100.00;100638.69;5036948;28;20076;-80
2023/08/15 03:06:28;;;;;;;8.43;7.30;;;;;;;21.55;100.00;100652.69;5036594;28;20092;-81
2023/08/15 03:08:54;;;;;;;14.85;7.75;;;;;;;21.47;100.00;100639.69;5036288;28;20100;-81
2023/08/15 03:11:21;;;;;;;10.10;8.18;;;;;;;21.48;100.00;100636.81;5035778;28;20124;-82
2023/08/15 03:13:48;;;;;;;11.43;7.60;;;;;;;21.44;100.00;100638.31;5036431;28;20081;-81
2023/08/15 03:16:14;;;;;;;9.80;8.10;;;;;;;21.44;100.00;100646.28;5035174;28;20045;-82
2023/08/15 03:18:41;;;;;;;14.10;7.60;;;;;;;21.43;100.00;100643.84;5036772;28;20088;-82
2023/08/15 03:21:08;;;;;;;10.75;8.38;;;;;;;21.46;100.00;100638.06;5036740;28;20079;-81
2023/08/15 03:23:37;;;;;;;12.75;8.20;;;;;;;21.44;100.00;100630.31;5036363;28;20147;-82
2023/08/15 03:26:05;;;;;;;11.80;8.02;;;;;;;21.43;100.00;100631.34;5035777;28;20458;-82
2023/08/15 03:28:32;;;;;;;10.88;8.10;;;;;;;21.38;100.00;100636.53;5036207;28;20080;-82
2023/08/15 03:31:04;;;;;;;17.05;8.73;;;;;;;21.33;100.00;100636.41;5034878;28;20043;-82
2023/08/15 03:33:31;;;;;;;12.63;8.25;;;;;;;21.33;100.00;100648.91;5035481;28;20068;-80
2023/08/15 03:35:57;;;;;;;12.15;8.77;;;;;;;21.24;100.00;100632.47;5027781;28;20444;-81
2023/08/15 03:38:24;;;;;;;16.75;8.90;;;;;;;21.17;100.00;100629.06;5034534;28;20136;-79
2023/08/15 03:41:02;;;;;;;14.90;8.82;;;;;;;21.17;100.00;100632.53;5036485;28;20095;-82
2023/08/15 03:43:28;;;;;;;13.13;9.32;;;;;;;20.93;100.00;100622.00;5036427;28;20042;-80
2023/08/15 03:45:55;;;;;;;14.85;9.50;;;;;;;20.75;100.00;100633.47;5026626;28;20151;-81
2023/08/15 03:48:21;;;;;;;12.27;9.18;;;;;;;20.63;100.00;100622.78;5035703;28;20132;-80
2023/08/15 03:50:48;;;;;;;12.80;8.73;;;;;;;20.68;100.00;100616.78;5029289;28;20116;-81
2023/08/15 03:53:15;;;;;;;13.20;9.30;;;;;;;20.75;100.00;100618.34;5034631;28;20583;-79
2023/08/15 03:55:41;;;;;;;10.88;8.98;;;;;;;20.77;100.00;100628.75;5033845;28;20428;-80
2023/08/15 03:58:09;;;;;;;12.32;9.18;;;;;;;20.80;100.00;100639.72;5034464;28;20129;-80
2023/08/15 04:00:36;;;;;;;11.82;9.52;;;;;;;20.86;100.00;100654.78;5033517;28;20486;-81
2023/08/15 04:03:10;;;;;;;12.73;8.98;;;;;;;20.85;100.00;100657.69;5033897;28;20049;-81
2023/08/15 04:06:02;;;;;;;11.32;9.27;;;;;;;20.90;100.00;100649.84;5030991;28;20445;-80
2023/08/15 04:08:28;;;;;;;13.33;9.07;;;;;;;20.90;100.00;100646.38;5028812;28;20477;-81
2023/08/15 04:10:57;;;;;;;11.23;8.93;;;;;;;20.86;100.00;100646.00;5033664;28;20375;-82
2023/08/15 04:13:25;;;;;;;15.05;9.07;;;;;;;20.80;100.00;100676.97;5033444;28;20480;-81
2023/08/15 04:15:52;;;;;;;15.25;9.25;;;;;;;20.87;100.00;100693.66;5025807;28;20101;-80
2023/08/15 04:18:18;;;;;;;11.73;8.70;;;;;;;20.87;100.00;100706.97;5032808;28;20132;-82
2023/08/15 04:20:45;;;;;;;10.65;8.93;;;;;;;20.89;100.00;100720.03;5033066;28;20050;-79
2023/08/15 04:23:12;;;;;;;10.98;9.13;;;;;;;20.95;100.00;100731.63;5033884;28;20539;-80
2023/08/15 04:25:40;;;;;;;14.55;9.20;;;;;;;20.93;100.00;100739.84;5028869;28;20046;-82
2023/08/15 04:28:07;;;;;;;11.20;8.70;;;;;;;20.94;100.00;100728.16;5024416;28;20084;-81
2023/08/15 04:30:35;;;;;;;13.50;8.73;;;;;;;20.95;100.00;100731.63;5029138;28;20092;-82
2023/08/15 04:33:02;;;;;;;11.95;8.88;;;;;;;20.94;100.00;100735.34;5026238;28;20042;-81
2023/08/15 04:35:29;;;;;;;10.65;8.27;;;;;;;20.95;100.00;100763.56;5036207;28;20150;-81
2023/08/15 04:37:56;;;;;;;15.27;8.77;;;;;;;20.84;100.00;100754.47;5032173;28;20057;-82
2023/08/15 04:40:32;;;;;;;11.38;8.07;;;;;;;20.79;100.00;100749.81;5027543;28;20055;-80
2023/08/15 04:42:58;;;;;;;10.07;7.80;;;;;;;20.80;100.00;100740.78;5040713;28;20072;-83
2023/08/15 04:45:25;;;;;;;10.55;7.95;;;;;;;20.81;100.00;100752.25;5027934;28;20073;-83
2023/08/15 04:47:54;;;;;;;10.68;7.60;;;;;;;20.80;100.00;100746.09;5033931;28;20056;-82
2023/08/15 04:50:21;;;;;;;10.18;7.95;;;;;;;20.79;100.00;100752.50;5034310;28;20058;-82
2023/08/15 04:52:48;;;;;;;12.02;8.65;;;;;;;20.77;100.00;100757.22;5036304;28;20539;-82
2023/08/15 04:55:14;;;;;;;9.00;7.93;;;;;;;20.75;100.00;100748.63;5036086;28;20256;-82
2023/08/15 04:57:42;;;;;;;10.23;7.53;;;;;;;20.80;100.00;100738.13;5038290;28;20104;-81
2023/08/15 05:00:11;;;;;;;11.50;8.70;;;;;;;20.64;100.00;100721.94;5034926;28;20605;-83
2023/08/15 05:02:37;;;;;;;11.10;8.55;;;;;;;20.46;100.00;100717.41;5034377;28;20053;-81
2023/08/15 05:05:09;;;;;;;14.07;9.43;;;;;;;20.53;100.00;100710.19;5039369;28;20119;-81
2023/08/15 05:07:38;;;;;;;15.57;10.35;;;;;;;20.66;100.00;100749.94;5032799;28;20056;-81
2023/08/15 05:10:06;;;;;;;20.52;10.70;;;;;;;20.70;100.00;100735.19;5038882;28;20092;-81
2023/08/15 05:12:33;;;;;;;17.27;11.07;;;;;;;20.75;100.00;100721.22;5042134;28;20136;-82
2023/08/15 05:14:59;;;;;;;18.52;10.63;;;;;;;20.80;100.00;100739.97;5041199;28;20255;-80
2023/08/15 05:17:26;;;;;;;16.23;10.90;;;;;;;20.82;100.00;100760.00;5028667;28;20057;-81
2023/08/15 05:19:53;;;;;;;16.55;10.25;;;;;;;20.77;100.00;100767.84;5037019;28;20049;-81
2023/08/15 05:22:21;;;;;;;14.32;10.27;;;;;;;20.81;100.00;100763.69;5038364;28;20139;-81
2023/08/15 05:24:47;;;;;;;19.27;12.40;;;;;;;20.75;100.00;100763.78;5031029;28;20052;-80
2023/08/15 05:27:15;;;;;;;18.75;11.85;;;;;;;20.83;100.00;100772.25;5038098;28;20106;-81
2023/08/15 05:29:43;;;;;;;17.08;11.32;;;;;;;20.91;100.00;100791.63;5029805;28;20109;-81
2023/08/15 05:32:10;;;;;;;14.70;10.93;;;;;;;21.01;100.00;100805.25;5038576;28;20050;-82
2023/08/15 05:34:36;;;;;;;17.08;10.85;;;;;;;21.08;100.00;100808.66;5039823;28;20073;-82
2023/08/15 05:37:03;;;;;;;14.93;10.05;;;;;;;21.11;100.00;100811.69;5041064;28;20450;-82
2023/08/15 05:39:31;;;;;;;15.70;10.05;;;;;;;21.14;100.00;100807.78;5038346;28;20136;-81
2023/08/15 05:41:58;;;;;;;12.32;9.38;;;;;;;21.14;100.00;100813.09;5040301;28;20054;-81
2023/08/15 05:44:25;;;;;;;16.50;9.57;;;;;;;21.10;100.00;100819.91;5039680;28;20049;-82
2023/08/15 05:46:52;;;;;;;14.45;9.65;;;;;;;21.10;100.00;100819.91;5032914;28;20132;-80
2023/08/15 05:49:18;;;;;;;15.20;9.75;;;;;;;21.17;100.00;100826.78;5039569;28;20124;-82
2023/08/15 05:51:45;;;;;;;14.82;9.80;;;;;;;21.21;100.00;100832.50;5039619;28;20132;-83
2023/08/15 05:54:11;;;;;;;10.90;9.48;;;;;;;21.23;100.00;100819.78;5028071;28;20127;-82
2023/08/15 05:56:40;;;;;;;13.55;9.88;;;;;;;21.24;100.00;100834.72;5006326;28;20133;-83
2023/08/15 05:59:06;;;;;;;11.65;9.60;;;;;;;21.25;100.00;100839.00;5008592;28;20057;-83
2023/08/15 06:01:33;;;;;;;12.60;10.25;;;;;;;21.29;100.00;100834.84;5003856;28;20076;-83
2023/08/15 06:04:00;;;;;;;11.85;10.05;;;;;;;21.31;100.00;100838.09;5003344;28;20113;-83
2023/08/15 06:06:27;;;;;;;10.35;9.02;;;;;;;21.29;100.00;100834.84;4999706;28;20049;-83
2023/08/15 06:08:55;;;;;;;9.98;8.98;;;;;;;21.33;100.00;100841.34;5004213;28;20133;-82
2023/08/15 06:11:21;;;;;;;12.90;9.18;;;;;;;21.42;100.00;100839.22;5002513;28;20053;-80
2023/08/15 06:13:49;;;;;;;11.75;8.77;;;;;;;21.58;100.00;100827.16;4990677;28;20110;-82
2023/08/15 06:16:16;;;;;;;10.68;8.73;;;;;;;21.82;100.00;100831.56;5012141;28;20083;-82
2023/08/15 06:18:43;;;;;;;11.75;9.35;;;;;;;22.01;100.00;100833.19;5018647;28;20072;-83
2023/08/15 06:21:09;;;;;;;11.02;8.68;;;;;;;22.15;100.00;100834.63;5019465;28;20050;-82
2023/08/15 06:23:36;;;;;;;11.52;8.38;;;;;;;22.30;100.00;100830.69;5003618;28;20081;-82
2023/08/15 06:26:03;;;;;;;11.70;8.65;;;;;;;22.18;100.00;100823.50;5000171;28;20073;-82
2023/08/15 06:28:29;;;;;;;9.48;8.02;;;;;;;22.18;100.00;100831.50;5017145;28;20060;-82
2023/08/15 06:30:57;;;;;;;13.20;7.90;;;;;;;22.09;100.00;100835.53;5005708;28;20080;-83
2023/08/15 06:33:24;;;;;;;13.43;8.23;;;;;;;22.06;100.00;100846.66;5010253;28;20038;-84
2023/08/15 06:35:50;;;;;;;11.77;7.78;;;;;;;21.94;100.00;100848.41;5020532;28;20078;-85
2023/08/15 06:38:20;;;;;;;13.85;7.50;;;;;;;21.84;100.00;100848.94;5012081;28;20513;-84
2023/08/15 06:40:58;;;;;;;12.32;7.63;;;;;;;21.77;100.00;100842.88;5000599;28;20054;-84
2023/08/15 06:43:24;;;;;;;12.00;7.60;;;;;;;21.84;100.00;100843.59;5002500;28;20061;-83
2023/08/15 06:45:51;;;;;;;9.70;7.15;;;;;;;21.93;100.00;100844.13;5001324;28;20048;-82
2023/08/15 06:48:20;;;;;;;10.90;7.72;;;;;;;21.89;100.00;100840.28;5005115;28;20045;-83
2023/08/15 06:53:40;;;;;;;14.18;7.53;;;;;;;21.97;100.00;100831.97;5000814;28;20124;-84
2023/08/15 06:56:06;;;;;;;18.05;9.07;;;;;;;22.02;100.00;100840.13;5009513;28;20046;-83
2023/08/15 06:58:33;;;;;;;14.35;7.65;;;;;;;22.07;100.00;100839.47;5016482;28;20051;-83
2023/08/15 07:01:00;;;;;;;18.48;8.18;;;;;;;22.09;100.00;100837.38;5005419;28;20054;-82
2023/08/15 07:03:33;;;;;;;27.40;8.73;;;;;;;22.15;100.00;100852.47;5007604;28;20054;-82
2023/08/15 07:06:00;;;;;;;;;;;;;;;22.06;100.00;100843.16;5020143;28;20081;-83
2023/08/15 07:08:27;;;;;;;15.65;7.40;;;;;;;21.91;100.00;100832.06;4998685;28;19921;-83
2023/08/15 07:10:57;;;;;;;12.18;7.82;;;;;;;21.81;100.00;100832.59;5005606;28;20105;-82
2023/08/15 07:13:24;;;;;;;14.18;7.55;;;;;;;21.79;100.00;100832.00;4996724;28;20078;-82
2023/08/15 07:15:54;;;;;;;10.73;7.22;;;;;;;21.93;100.00;100836.13;5001461;28;20130;-82
2023/08/15 07:18:21;;;;;;;10.52;7.97;;;;;;;21.97;100.00;100826.66;5016068;28;20431;-81
2023/08/15 07:20:49;;;;;;;12.10;8.60;;;;;;;21.92;100.00;100818.50;4997728;28;20051;-82
2023/08/15 07:23:16;;;;;;;11.93;8.32;;;;;;;22.21;100.00;100832.09;4993550;28;20054;-82
2023/08/15 07:25:43;;;;;;;15.68;8.40;;;;;;;22.34;100.00;100822.03;5000463;28;20527;-85
2023/08/15 07:28:10;;;;;;;10.68;7.95;;;;;;;22.53;100.00;100817.44;4994970;28;20117;-82
2023/08/15 07:30:37;;;;;;;13.50;9.60;;;;;;;22.83;100.00;100820.84;4999072;28;20046;-82
2023/08/15 07:33:07;;;;;;;17.00;8.55;;;;;;;23.02;100.00;100818.88;5004895;28;20111;-81
2023/08/15 07:35:34;;;;;;;15.02;8.13;;;;;;;22.89;100.00;100824.44;5001054;28;20042;-83
2023/08/15 07:38:02;;;;;;;10.23;7.82;;;;;;;22.71;100.00;100821.84;5005384;28;20110;-82
2023/08/15 07:40:29;;;;;;;15.05;7.85;;;;;;;22.50;100.00;100821.38;5012736;28;20045;-83
2023/08/15 07:42:55;;;;;;;17.92;8.10;;;;;;;22.57;100.00;100834.59;5008260;28;20141;-81
2023/08/15 07:45:23;;;;;;;9.55;8.20;;;;;;;22.61;100.00;100833.09;5003065;28;20053;-82
2023/08/15 07:47:51;;;;;;;12.15;7.80;;;;;;;22.80;100.00;100829.28;4999512;28;20054;-82
2023/08/15 07:50:21;;;;;;;14.13;8.48;;;;;;;22.79;100.00;100838.34;5000172;28;20157;-81
2023/08/15 07:52:48;;;;;;;14.30;7.95;;;;;;;22.89;100.00;100844.97;5007271;28;20109;-81
2023/08/15 07:55:16;;;;;;;13.10;8.70;;;;;;;22.82;100.00;100858.41;5010802;28;20077;-81
2023/08/15 07:57:44;;;;;;;18.15;12.05;;;;;;;22.90;100.00;100865.28;5004522;28;20054;-80
2023/08/15 08:00:14;;;;;;;20.30;11.05;;;;;;;22.88;100.00;100865.50;5002962;28;20064;-81
2023/08/15 08:02:41;;;;;;;27.08;12.32;;;;;;;22.79;100.00;100862.34;5018588;28;20054;-81
2023/08/15 08:05:09;;;;;;;21.50;10.80;;;;;;;22.64;100.00;100869.97;5022152;28;20050;-80
2023/08/15 08:07:41;;;;;;;21.40;9.75;;;;;;;22.63;100.00;100872.88;5029905;28;20050;-80
2023/08/15 08:10:09;;;;;;;13.80;9.10;;;;;;;22.74;100.00;100872.88;5009661;28;20065;-79
2023/08/15 08:12:37;;;;;;;12.63;8.75;;;;;;;22.59;100.00;100880.53;4998362;28;20061;-78
2023/08/15 08:15:04;;;;;;;10.70;8.93;;;;;;;22.73;100.00;100868.56;4989959;28;20047;-78
2023/08/15 08:17:31;;;;;;;14.77;9.30;;;;;;;22.70;100.00;100870.88;4995787;28;20054;-79
2023/08/15 08:19:58;;;;;;;12.13;8.30;;;;;;;22.67;100.00;100869.53;4999156;28;20088;-81
2023/08/15 08:22:24;;;;;;;14.18;8.60;;;;;;;22.70;99.88;100866.38;5025509;28;20088;-79
2023/08/15 08:24:53;;;;;;;18.77;8.32;;;;;;;22.78;99.77;100857.22;5013090;28;20092;-81
2023/08/15 08:27:19;;;;;;;14.57;8.00;;;;;;;22.88;99.27;100854.00;5003929;28;20058;-81
2023/08/15 08:29:48;;;;;;;11.88;7.10;;;;;;;23.24;98.88;100869.78;5006043;28;20112;-81
2023/08/15 08:32:15;;;;;;;12.95;7.88;;;;;;;23.21;96.71;100856.91;5007311;28;20133;-81
2023/08/15 08:34:41;;;;;;;11.05;7.82;;;;;;;23.25;96.62;100871.41;5002091;28;20066;-81
2023/08/15 08:37:08;;;;;;;12.57;8.40;;;;;;;23.28;97.13;100872.78;4991349;28;20152;-79
2023/08/15 08:39:35;;;;;;;11.93;7.18;;;;;;;23.27;97.35;100880.00;5003695;28;20099;-80
2023/08/15 08:42:03;;;;;;;12.35;6.07;;;;;;;23.02;92.29;100861.56;5016395;28;20046;-80
2023/08/15 08:44:32;;;;;;;12.68;6.57;;;;;;;23.01;91.50;100857.28;5009138;28;20068;-81
2023/08/15 08:47:00;;;;;;;21.30;7.85;;;;;;;22.94;92.48;100863.75;5005357;28;20081;-80
2023/08/15 08:49:29;;;;;;;11.55;7.38;;;;;;;22.77;92.63;100868.94;5015843;28;20054;-80
2023/08/15 08:51:57;;;;;;;14.45;7.40;;;;;;;22.77;93.12;100875.06;5017927;28;20042;-80
2023/08/15 08:54:24;;;;;;;13.25;7.57;;;;;;;22.66;94.95;100883.91;5014784;28;20050;-81
2023/08/15 08:56:54;;;;;;;14.10;6.95;;;;;;;22.67;94.64;100874.03;4993383;28;20046;-79
2023/08/15 08:59:23;;;;;;;11.27;7.32;;;;;;;22.72;94.81;100888.28;5019995;28;20061;-80
2023/08/15 09:01:50;;;;;;;11.82;6.47;;;;;;;22.72;93.65;100866.13;5007558;28;20050;-79
2023/08/15 09:04:24;;;;;;;10.43;6.13;;;;;;;22.81;93.26;100875.47;5010421;28;20054;-79
2023/08/15 09:06:51;;;;;;;10.63;5.60;;;;;;;22.89;92.10;100866.31;5018365;28;20092;-82
2023/08/15 09:09:18;;;;;;;8.98;5.82;;;;;;;23.03;91.35;100857.03;5020954;28;20076;-80
2023/08/15 09:11:46;;;;;;;11.45;6.60;;;;;;;23.20;91.57;100867.81;5016565;28;20110;-80
2023/08/15 09:14:13;;;;;;;9.07;5.93;;;;;;;23.34;91.68;100858.50;4993581;28;20077;-79
2023/08/15 09:16:47;;;;;;;10.85;6.57;;;;;;;23.40;90.24;100863.72;4997886;28;20086;-78
2023/08/15 09:19:14;;;;;;;13.13;7.93;;;;;;;23.45;89.05;100869.19;4990718;28;20042;-77
2023/08/15 09:21:42;;;;;;;12.55;6.68;;;;;;;23.54;89.12;100874.19;4990600;28;20432;-77
2023/08/15 09:24:09;;;;;;;9.70;6.82;;;;;;;23.43;88.75;100878.47;4991521;28;20108;-76
2023/08/15 09:26:36;;;;;;;15.60;6.70;;;;;;;23.59;88.24;100872.44;4988609;28;20074;-77
2023/08/15 09:29:04;;;;;;;9.50;6.53;;;;;;;23.64;87.22;100869.84;4990636;28;20097;-78
2023/08/15 09:31:31;;;;;;;9.13;6.55;;;;;;;;;;4990879;28;20054;-79
2023/08/15 09:33:57;;;;;;;12.27;6.35;;;;;;;23.72;87.64;100872.16;4998590;28;20085;-79
2023/08/15 09:36:25;;;;;;;9.80;6.65;;;;;;;23.70;89.28;100881.44;5000032;28;20076;-79
2023/08/15 09:39:00;;;;;;;11.15;6.82;;;;;;;23.89;89.28;100882.91;5003544;28;20098;-79
2023/08/15 09:41:26;;;;;;;12.25;6.68;;;;;;;24.03;87.54;100884.28;5001080;28;20079;-78
2023/08/15 09:43:54;;;;;;;8.85;6.25;;;;;;;24.16;85.34;100878.59;5000079;28;20137;-77
2023/08/15 09:46:22;;;;;;;9.23;6.07;;;;;;;24.27;86.33;100884.19;5013411;28;20137;-77
2023/08/15 09:48:51;;;;;;;17.55;7.45;;;;;;;24.32;87.08;100897.66;5017627;28;20591;-80
2023/08/15 09:51:18;;;;;;;12.23;6.63;;;;;;;24.44;85.96;100880.50;5017546;28;20140;-78
2023/08/15 09:53:46;;;;;;;13.93;7.05;;;;;;;24.36;87.13;100886.22;5016239;28;20483;-78
2023/08/15 09:56:15;;;;;;;8.88;5.80;;;;;;;24.69;84.50;100877.41;5011938;28;20109;-77
2023/08/15 09:58:42;;;;;;;11.88;6.90;;;;;;;24.83;79.94;100866.38;5006072;28;20176;-77
2023/08/15 10:01:12;;;;;;;9.63;6.00;;;;;;;25.25;78.21;100872.09;4998400;28;20186;-79
2023/08/15 10:03:41;;;;;;;12.38;5.32;;;;;;;25.75;78.41;100882.69;4994225;28;20190;-79
2023/08/15 10:06:08;;;;;;;12.05;5.43;;;;;;;26.24;76.41;100874.63;4996673;28;20077;-78
2023/08/15 10:08:38;;;;;;;9.27;4.70;;;;;;;26.51;74.52;100875.44;4993931;28;20556;-78
2023/08/15 10:11:07;;;;;;;34.53;8.15;;;;;;;26.91;72.72;100880.34;4995576;28;20050;-77
2023/08/15 10:13:37;;;;;;;11.90;5.95;;;;;;;26.84;70.40;100870.88;4994328;28;20129;-78
2023/08/15 10:16:12;;;;;;;10.73;5.07;;;;;;;26.19;71.70;100872.72;4995368;28;20129;-78
2023/08/15 10:18:38;;;;;;;8.93;5.07;;;;;;;25.83;71.69;100876.91;5000968;28;20042;-77
2023/08/15 10:21:05;;;;;;;10.10;5.43;;;;;;;25.67;73.31;100893.84;4997041;28;20102;-78
2023/08/15 10:23:34;;;;;;;9.43;4.85;;;;;;;25.66;72.39;100881.50;4995322;28;20078;-79
2023/08/15 10:26:01;;;;;;;8.93;4.40;;;;;;;25.75;72.61;100893.41;4994967;28;20420;-78
2023/08/15 10:28:29;;;;;;;7.72;4.25;;;;;;;25.81;70.89;100887.06;4995456;28;20085;-79
2023/08/15 10:30:57;;;;;;;11.95;4.85;;;;;;;25.72;72.64;100892.03;4998150;28;20421;-79
2023/08/15 10:33:26;;;;;;;11.35;4.65;;;;;;;26.08;71.72;100885.19;4993323;28;20110;-78
2023/08/15 10:36:08;;;;;;;8.82;4.57;;;;;;;26.29;70.20;100877.38;4998777;28;20042;-79
2023/08/15 10:38:37;;;;;;;7.83;4.37;;;;;;;26.34;71.45;100897.03;4992405;28;20586;-79
2023/08/15 10:41:05;;;;;;;8.40;4.35;;;;;;;26.37;71.67;100893.84;4993304;28;20306;-79
2023/08/15 10:43:34;;;;;;;8.45;4.30;;;;;;;26.20;71.44;100890.41;4995509;28;20042;-79
2023/08/15 10:46:04;;;;;;;12.18;4.78;;;;;;;25.85;70.65;100872.09;4998251;28;20118;-79
2023/08/15 10:48:47;;;;;;;9.88;4.28;;;;;;;25.65;72.05;100885.25;5000214;28;20050;-78
2023/08/15 10:51:18;;;;;;;9.88;5.10;;;;;;;25.46;73.25;100884.72;4995710;28;20042;-78
2023/08/15 10:53:47;;;;;;;10.27;5.00;;;;;;;25.51;74.63;100884.00;4993787;28;20595;-78
2023/08/15 10:56:17;;;;;;;7.60;4.72;;;;;;;25.71;73.80;100884.25;4993870;28;20045;-78
2023/08/15 10:58:44;;;;;;;12.70;4.82;;;;;;;25.97;75.38;100890.72;4990948;28;20042;-78
2023/08/15 11:01:12;;;;;;;9.50;5.03;;;;;;;26.09;74.18;100880.66;4993694;28;20216;-78
2023/08/15 11:03:39;;;;;;;8.60;4.90;;;;;;;26.24;72.20;100871.94;4999384;28;20129;-79
2023/08/15 11:06:10;;;;;;;8.40;4.88;;;;;;;26.33;71.58;100870.47;4999579;28;20046;-79
2023/08/15 11:08:47;;;;;;;7.23;4.40;;;;;;;26.10;72.17;100880.41;4998902;28;20322;-78
2023/08/15 11:11:14;;;;;;;9.07;4.85;;;;;;;26.14;71.58;100872.66;4995747;28;20363;-79
2023/08/15 11:13:41;;;;;;;8.98;4.38;;;;;;;26.85;71.60;100881.34;4996304;28;20061;-78
2023/08/15 11:16:09;;;;;;;10.00;4.57;;;;;;;27.14;72.91;100897.94;4999968;28;20114;-78
2023/08/15 11:18:37;;;;;;;8.90;4.80;;;;;;;26.88;72.80;100899.63;4999856;28;20125;-78